Hobart Airport
YMHB : now visible

Airfield :











YOU CAN JOIN US ON...

 
LOGIN :

Register | Disclaimer

   EN    FR    IT 

 









Legend :    VFR   Marginal VFR   IFR   Intensive IFR   Very Intensive IFR
Visi :
Ceiling :
>= 8 km
>= 3000ft
5 to 8 km
1000 to 3000 ft
1500m to 5 km
500 to 1000 ft
800 to 1500m
200 to 500 ft
< 800m
< 200 ft
Symbols :   Thunderstorms  Fog  Heavy snow  Heavy precipitations  Wind > 20 kt






- Airport Elevation : 13 ft
- IATA code : HBA


YMHB - Hobart

CURRENT METAR :
  • 060000Z 29023KT 9999 FEW040 SCT047 15/05 Q1010 RF00.0/000.0

EXPIRED METARs :
  • 052330Z 29025KT 9999 FEW038 SCT046 14/05 Q1010 RF00.0/000.0
  • 052300Z 29023KT 9999 FEW038 SCT045 14/04 Q1009 RF00.0/000.0
  • 052230Z 29028KT 9999 SCT042 13/04 Q1009
  • 052228Z 29028G38KT 9999 SCT042 13/05 Q1009 RF00.0/000.0
  • 052221Z 29033KT 9999 SCT043 13/04 Q1008
  • 052200Z 28021G32KT 9999 SCT045 13/04 Q1009 RF00.0/000.0
  • 052130Z 29017G28KT 9999 SCT047 12/04 Q1008 RF00.0/000.0

TAF TAF YMHB
Valid from the 06 at 00:00 until the 07 at 00:00 UTC


052301Z 0600/0700 28025G38KT 9999 SCT045
FM060300 24015G25KT 9999 -SHRA SCT040
FM060900 33010KT 9999 -SHRA BKN030
FM062200 21014KT 9999 SHRA SCT015 BKN030
TEMPO 0622/0700 4000 SHRA BKN012
YMMM FIR / Oceania



MET'MAP, your aeronautical weather chart ! - Copyright ORBIFLY December 2007 - Disclaimer

ORBIFLY MET'MAP TEAM :

Programming & Development : Alexandra Zaïnal
Concept & original design : Baudouin d'Aumeries
Assistance for programming : Marc-Olivier Méhu
Technical & hardware support : Manuel Goepfert

Contact : metmap@orbifly.com




SOURCES & CREDITS :

   NOAA       Earth
Advisory